Time;durP1;ratioP1;P1;durP2;ratioP2;P2;SDS_P1;SDS_P2;PMS_P1;PMS_P2;Temp;Humidity;BMP_temperature;BMP_pressure;BME280_temperature;BME280_humidity;BME280_pressure;Samples;Min_cycle;Max_cycle;Signal;HPM_P1;HPM_P2
2022/04/06 00:00:42;;;;;;;1.40;0.43;;;;;;;25.71;27.24;101111.72;4936259;29;20042;-44
2022/04/06 00:03:11;;;;;;;1.48;0.40;;;;;;;25.71;27.08;101111.72;4936300;29;20044;-50
2022/04/06 00:05:40;;;;;;;0.90;0.32;;;;;;;25.71;26.91;101102.94;4936187;29;20103;-48
2022/04/06 00:08:09;;;;;;;1.08;0.47;;;;;;;25.82;27.08;101098.63;4936636;29;20027;-45
2022/04/06 00:10:38;;;;;;;1.45;0.63;;;;;;;25.78;26.74;101092.47;4936114;29;20494;-46
2022/04/06 00:13:06;;;;;;;1.08;0.50;;;;;;;25.71;27.14;101084.53;4936096;29;20063;-51
2022/04/06 00:15:35;;;;;;;4.75;0.65;;;;;;;25.76;26.97;101090.72;4935764;29;20070;-45
2022/04/06 00:18:03;;;;;;;0.85;0.30;;;;;;;25.68;27.18;101087.13;4936075;29;20034;-45
2022/04/06 00:20:32;;;;;;;1.33;0.40;;;;;;;25.59;27.30;101086.22;4935917;29;20024;-46
2022/04/06 00:23:01;;;;;;;1.00;0.52;;;;;;;25.68;27.07;101080.16;4936411;29;20036;-45
2022/04/06 00:25:29;;;;;;;1.23;0.47;;;;;;;25.69;27.17;101083.66;4936006;29;20016;-51
2022/04/06 00:27:58;;;;;;;0.52;0.30;;;;;;;25.69;26.84;101081.00;4935644;29;20028;-48
2022/04/06 00:30:26;;;;;;;1.20;0.50;;;;;;;25.68;26.81;101080.16;4924309;29;20048;-48
2022/04/06 00:32:55;;;;;;;0.52;0.30;;;;;;;25.68;26.97;101076.63;4916761;29;20104;-47
2022/04/06 00:35:32;;;;;;;1.27;0.40;;;;;;;25.59;26.74;101041.56;4916370;29;20119;-47
2022/04/06 00:38:03;;;;;;;1.48;0.40;;;;;;;25.75;26.54;101074.06;4916851;29;20096;-48
2022/04/06 00:40:33;;;;;;;1.75;0.57;;;;;;;25.72;26.96;101078.41;4916633;29;20028;-46
2022/04/06 00:43:07;;;;;;;0.55;0.30;;;;;;;25.74;26.70;101069.66;4916651;29;20389;-46
2022/04/06 00:45:38;;;;;;;2.17;0.60;;;;;;;25.71;26.72;101060.91;4917075;29;20028;-45
2022/04/06 00:48:07;;;;;;;1.33;0.40;;;;;;;25.68;26.82;101064.38;4916622;29;20060;-45
2022/04/06 00:50:36;;;;;;;1.90;0.40;;;;;;;25.70;26.96;101067.91;4917027;29;20060;-46
2022/04/06 00:53:05;;;;;;;0.90;0.43;;;;;;;25.65;26.69;101066.13;4917340;29;20028;-45
2022/04/06 00:55:36;;;;;;;0.50;0.25;;;;;;;25.62;27.04;101061.69;4916920;29;20529;-43
2022/04/06 00:58:05;;;;;;;0.73;0.45;;;;;;;25.65;26.68;101058.25;4916905;29;20032;-48
2022/04/06 01:00:34;;;;;;;1.08;0.30;;;;;;;25.60;26.78;101047.69;4916495;29;20020;-45
2022/04/06 01:03:02;;;;;;;1.35;0.47;;;;;;;25.61;26.70;101039.81;4916760;29;20091;-44
2022/04/06 01:05:31;;;;;;;1.20;0.60;;;;;;;25.65;26.69;101040.72;4916488;29;20474;-47
2022/04/06 01:08:01;;;;;;;0.30;0.30;;;;;;;25.60;26.86;101034.53;4916780;29;20027;-47
2022/04/06 01:10:30;;;;;;;1.65;0.55;;;;;;;25.58;26.67;101031.00;4900187;29;20028;-50
2022/04/06 01:12:59;;;;;;;1.67;0.40;;;;;;;25.55;27.02;101021.38;4916498;29;20470;-53
2022/04/06 01:15:27;;;;;;;0.90;0.35;;;;;;;25.66;27.02;101026.72;4899341;29;20545;-44
2022/04/06 01:17:56;;;;;;;1.75;0.50;;;;;;;25.60;26.64;101018.78;4916413;29;20492;-47
2022/04/06 01:20:24;;;;;;;0.82;0.40;;;;;;;25.56;26.94;101019.66;4916550;29;20040;-46
2022/04/06 01:22:53;;;;;;;1.13;0.40;;;;;;;25.59;26.75;101019.66;4916462;29;20028;-47
2022/04/06 01:25:22;;;;;;;0.90;0.43;;;;;;;25.46;26.94;101016.94;4916305;29;20115;-49
2022/04/06 01:27:51;;;;;;;0.77;0.55;;;;;;;25.54;27.10;101017.00;4899779;29;20119;-45
2022/04/06 01:30:19;;;;;;;0.73;0.28;;;;;;;25.51;27.09;101016.09;4926744;29;20044;-47
2022/04/06 01:32:48;;;;;;;1.35;0.52;;;;;;;25.51;26.81;101010.84;4935353;29;20032;-44
2022/04/06 01:35:17;;;;;;;0.80;0.40;;;;;;;25.47;27.09;101004.69;4935072;29;20035;-48
2022/04/06 01:37:45;;;;;;;0.90;0.60;;;;;;;25.50;27.02;101004.69;4935367;29;20027;-49
2022/04/06 01:40:14;;;;;;;0.93;0.50;;;;;;;25.43;26.82;101008.16;4938160;29;20039;-45
2022/04/06 01:42:42;;;;;;;1.23;0.40;;;;;;;25.49;26.76;100997.69;4938789;29;20111;-48
2022/04/06 01:45:11;;;;;;;3.40;0.40;;;;;;;25.51;26.82;100995.94;4938375;29;20032;-45
2022/04/06 01:47:40;;;;;;;1.10;0.30;;;;;;;25.50;27.09;100988.06;4938667;29;20030;-44
2022/04/06 01:52:56;;;;;;;0.82;0.30;;;;;;;25.52;26.66;100971.44;4932332;29;20059;-47
2022/04/06 01:55:24;;;;;;;0.80;0.40;;;;;;;25.43;27.00;100963.50;4939203;29;20024;-50
2022/04/06 01:57:53;;;;;;;1.20;0.73;;;;;;;25.53;26.59;100973.19;4938621;29;20430;-47
2022/04/06 02:00:22;;;;;;;0.45;0.28;;;;;;;25.46;26.79;100972.28;4921500;29;20032;-47
2022/04/06 02:02:52;;;;;;;1.00;0.28;;;;;;;25.47;26.83;100973.19;4938257;29;20063;-47
2022/04/06 02:05:21;;;;;;;0.60;0.25;;;;;;;25.49;26.68;100971.41;4938550;29;20031;-47
2022/04/06 02:07:50;;;;;;;0.30;0.20;;;;;;;25.44;27.13;100963.50;4938527;29;20039;-47
2022/04/06 02:10:19;;;;;;;0.57;0.28;;;;;;;25.44;27.02;100965.28;4938579;29;20031;-48
2022/04/06 02:12:48;;;;;;;0.90;0.40;;;;;;;25.44;26.77;100955.63;4938244;29;20535;-51
2022/04/06 02:15:17;;;;;;;1.08;0.40;;;;;;;25.48;26.97;100951.31;4938139;29;20489;-48
2022/04/06 02:17:48;;;;;;;0.52;0.30;;;;;;;25.43;26.94;100947.75;4938182;29;20035;-47
2022/04/06 02:20:17;;;;;;;1.10;0.35;;;;;;;25.46;26.83;100940.78;4938462;29;20028;-50
2022/04/06 02:22:45;;;;;;;0.70;0.28;;;;;;;25.45;26.72;100940.78;4938040;29;20083;-48
2022/04/06 02:25:15;;;;;;;0.95;0.43;;;;;;;25.46;27.12;100945.16;4938479;29;20031;-51
2022/04/06 02:27:53;;;;;;;1.00;0.52;;;;;;;25.44;26.73;100949.53;4937582;29;20421;-48
2022/04/06 02:30:22;;;;;;;0.98;0.40;;;;;;;25.43;27.10;100939.88;4937768;29;20048;-48
2022/04/06 02:32:51;;;;;;;0.47;0.28;;;;;;;25.45;26.89;100938.16;4937258;29;20094;-51
2022/04/06 02:35:20;;;;;;;0.90;0.30;;;;;;;25.43;26.95;100939.88;4937721;29;20039;-49
2022/04/06 02:37:49;;;;;;;0.50;0.40;;;;;;;25.44;26.64;100932.00;4937902;29;20027;-48
2022/04/06 02:40:18;;;;;;;1.55;0.50;;;;;;;25.46;27.05;100932.91;4937621;29;20020;-48
2022/04/06 02:42:46;;;;;;;1.92;0.47;;;;;;;25.44;26.95;100933.75;4937990;29;20036;-47
2022/04/06 02:45:15;;;;;;;2.53;0.65;;;;;;;25.44;26.81;100925.88;4937676;29;20024;-48
2022/04/06 02:47:44;;;;;;;0.50;0.20;;;;;;;25.44;27.04;100920.63;4937222;29;20028;-48
2022/04/06 02:50:12;;;;;;;1.17;0.35;;;;;;;25.46;26.94;100921.53;4920644;29;20369;-53
2022/04/06 02:52:40;;;;;;;0.73;0.28;;;;;;;25.46;26.65;100916.28;4937331;29;20438;-45
2022/04/06 02:55:12;;;;;;;0.75;0.30;;;;;;;25.47;26.51;100913.63;4937455;29;20028;-49
2022/04/06 02:57:44;;;;;;;0.50;0.30;;;;;;;25.43;26.76;100906.59;4937291;29;20474;-48
2022/04/06 03:00:14;;;;;;;0.98;0.32;;;;;;;25.39;27.08;100891.69;4936735;29;20039;-49
2022/04/06 03:02:44;;;;;;;0.40;0.20;;;;;;;25.38;26.76;100889.03;4937901;29;20028;-49
2022/04/06 03:05:11;;;;;;;0.68;0.20;;;;;;;25.39;26.64;100882.91;4937345;29;20024;-47
2022/04/06 03:07:41;;;;;;;0.75;0.20;;;;;;;25.37;27.01;100879.41;4936885;29;20086;-46
2022/04/06 03:10:10;;;;;;;0.75;0.30;;;;;;;25.38;27.07;100873.28;4937332;29;20019;-50
2022/04/06 03:12:37;;;;;;;1.58;0.20;;;;;;;25.36;26.68;100872.38;4937289;29;20023;-52
2022/04/06 03:15:06;;;;;;;1.00;0.30;;;;;;;25.38;26.70;100874.19;4920618;29;20445;-47
2022/04/06 03:17:35;;;;;;;1.00;0.20;;;;;;;25.39;26.98;100865.44;4936915;29;20027;-49
2022/04/06 03:20:05;;;;;;;0.63;0.30;;;;;;;25.36;26.94;100857.53;4936937;29;20064;-51
2022/04/06 03:22:33;;;;;;;0.90;0.30;;;;;;;25.37;26.94;100845.25;4937058;29;20132;-46
2022/04/06 03:25:02;;;;;;;1.60;0.40;;;;;;;25.36;26.59;100844.41;4936894;29;20032;-47
2022/04/06 03:27:30;;;;;;;1.00;0.30;;;;;;;25.41;26.48;100842.66;4936409;29;20125;-46
2022/04/06 03:29:59;;;;;;;0.95;0.22;;;;;;;25.35;26.95;100842.66;4937076;29;20048;-46
2022/04/06 03:32:27;;;;;;;0.20;0.10;;;;;;;25.38;26.89;100832.16;4936791;29;20028;-48
2022/04/06 03:34:56;;;;;;;0.47;0.20;;;;;;;25.32;26.79;100832.97;4936975;29;20032;-48
2022/04/06 03:37:25;;;;;;;0.15;0.08;;;;;;;25.34;26.56;100833.00;4919754;29;20028;-50
2022/04/06 03:39:53;;;;;;;1.13;0.20;;;;;;;25.36;26.63;100827.75;4936295;29;20104;-49
2022/04/06 03:42:22;;;;;;;0.70;0.20;;;;;;;25.39;26.55;100830.41;4936114;29;20032;-53
2022/04/06 03:44:50;;;;;;;0.20;0.10;;;;;;;25.36;26.95;100827.75;4935947;29;20067;-46
2022/04/06 03:47:19;;;;;;;0.98;0.28;;;;;;;25.35;26.61;100824.25;4935889;29;20381;-44
2022/04/06 03:49:48;;;;;;;2.03;0.40;;;;;;;25.29;26.67;100809.34;4936064;29;20079;-45
2022/04/06 03:52:16;;;;;;;1.42;0.50;;;;;;;25.29;27.06;100813.72;4936268;29;20106;-45
2022/04/06 03:54:46;;;;;;;0.10;0.10;;;;;;;25.29;26.78;100812.00;4936928;29;20114;-51
2022/04/06 03:57:15;;;;;;;1.17;0.30;;;;;;;25.29;26.93;100809.34;4936418;29;20031;-45
2022/04/06 03:59:43;;;;;;;0.65;0.25;;;;;;;25.32;26.96;100816.38;4936058;29;20079;-52
2022/04/06 04:02:12;;;;;;;1.13;0.20;;;;;;;25.30;26.56;100816.38;4935721;29;20030;-46
2022/04/06 04:04:41;;;;;;;0.50;0.30;;;;;;;25.36;26.75;100809.38;4936319;29;20039;-45
2022/04/06 04:07:10;;;;;;;0.60;0.30;;;;;;;25.27;26.82;100800.59;4936282;29;20130;-46
2022/04/06 04:09:39;;;;;;;0.88;0.28;;;;;;;25.28;26.83;100799.72;4919622;29;20035;-47
2022/04/06 04:12:08;;;;;;;1.13;0.30;;;;;;;25.28;26.57;100804.97;4919503;29;20035;-45
2022/04/06 04:14:36;;;;;;;2.08;0.60;;;;;;;25.29;27.00;100800.59;4936013;29;20039;-50
2022/04/06 04:17:05;;;;;;;0.95;0.30;;;;;;;25.24;26.79;100803.19;4936380;29;20351;-44
2022/04/06 04:19:33;;;;;;;1.15;0.30;;;;;;;25.24;26.97;100794.44;4935998;29;20027;-45
2022/04/06 04:22:02;;;;;;;1.20;0.28;;;;;;;25.18;27.05;100793.56;4935988;29;20063;-51
2022/04/06 04:24:30;;;;;;;0.30;0.20;;;;;;;25.28;26.75;100807.59;4935915;29;20031;-49
2022/04/06 04:26:59;;;;;;;2.15;0.40;;;;;;;25.29;26.87;100796.22;4935969;29;20486;-45
2022/04/06 04:29:28;;;;;;;0.90;0.25;;;;;;;25.30;26.44;100792.75;4936025;29;20510;-45
2022/04/06 04:31:57;;;;;;;1.00;0.30;;;;;;;25.27;26.72;100791.81;4936642;29;20027;-47
2022/04/06 04:34:25;;;;;;;1.05;0.40;;;;;;;25.24;26.94;100782.19;4936395;29;20043;-49
2022/04/06 04:36:54;;;;;;;0.80;0.20;;;;;;;25.26;26.58;100785.72;4936039;29;20489;-46
2022/04/06 04:39:23;;;;;;;0.73;0.20;;;;;;;25.20;26.82;100775.16;4935809;29;20078;-49
2022/04/06 04:41:51;;;;;;;1.05;0.40;;;;;;;25.25;26.94;100775.19;4936050;29;20036;-48
2022/04/06 04:44:20;;;;;;;0.32;0.20;;;;;;;25.22;26.68;100759.44;4935838;29;20484;-44
2022/04/06 04:46:48;;;;;;;1.75;0.40;;;;;;;25.24;26.56;100779.56;4935758;29;20035;-45
2022/04/06 04:49:17;;;;;;;0.43;0.13;;;;;;;25.24;26.77;100773.44;4936097;29;20027;-48
2022/04/06 04:51:45;;;;;;;1.05;0.40;;;;;;;25.18;27.19;100771.66;4935702;29;20028;-49
2022/04/06 04:54:14;;;;;;;0.95;0.32;;;;;;;25.19;26.79;100768.16;4935854;29;20071;-45
2022/04/06 04:56:43;;;;;;;1.05;0.22;;;;;;;25.17;26.93;100770.78;4935200;29;20107;-46
2022/04/06 04:59:11;;;;;;;0.80;0.45;;;;;;;25.13;26.85;100765.53;4918642;29;20028;-45
2022/04/06 05:01:40;;;;;;;0.52;0.20;;;;;;;25.13;26.71;100757.66;4935691;29;20477;-47
2022/04/06 05:04:09;;;;;;;0.93;0.40;;;;;;;25.19;26.78;100765.53;4918747;29;20046;-49
2022/04/06 05:06:38;;;;;;;0.55;0.20;;;;;;;25.15;26.59;100767.28;4934981;29;20024;-48
2022/04/06 05:09:07;;;;;;;0.52;0.20;;;;;;;25.07;27.24;100762.84;4936028;29;20036;-45
2022/04/06 05:11:36;;;;;;;0.50;0.20;;;;;;;25.13;27.11;100761.13;4935772;29;20072;-45
2022/04/06 05:14:04;;;;;;;0.68;0.30;;;;;;;25.13;27.01;100753.25;4937726;29;20114;-45
2022/04/06 05:16:32;;;;;;;0.40;0.28;;;;;;;25.19;26.84;100749.78;4939516;29;20028;-45
2022/04/06 05:19:01;;;;;;;0.55;0.20;;;;;;;25.15;26.65;100763.78;4939210;29;20035;-44
2022/04/06 05:21:29;;;;;;;0.40;0.20;;;;;;;25.09;26.86;100753.25;4939183;29;20032;-44
2022/04/06 05:23:59;;;;;;;0.77;0.20;;;;;;;25.06;27.09;100755.84;4939426;29;20086;-44
2022/04/06 05:26:28;;;;;;;1.17;0.45;;;;;;;25.09;27.00;100759.34;4939307;29;20028;-45
2022/04/06 05:28:56;;;;;;;0.20;0.10;;;;;;;25.07;27.03;100747.13;4938963;29;20079;-44
2022/04/06 05:31:25;;;;;;;1.38;0.38;;;;;;;25.09;27.14;100758.50;4938797;29;20048;-49
2022/04/06 05:33:54;;;;;;;0.17;0.17;;;;;;;25.08;27.14;100756.75;4938909;29;20074;-45
2022/04/06 05:36:24;;;;;;;0.47;0.22;;;;;;;25.14;26.80;100767.28;4939007;29;20493;-46
2022/04/06 05:38:54;;;;;;;1.23;0.30;;;;;;;25.09;27.06;100763.75;4938831;29;20028;-46
2022/04/06 05:41:22;;;;;;;1.58;0.30;;;;;;;24.97;27.12;100765.44;4938717;29;20027;-43
2022/04/06 05:43:51;;;;;;;1.27;0.38;;;;;;;25.01;26.85;100761.94;4938784;29;20063;-44
2022/04/06 05:46:19;;;;;;;1.77;0.43;;;;;;;25.01;26.82;100754.06;4938637;29;20025;-44
2022/04/06 05:48:48;;;;;;;1.98;0.55;;;;;;;25.01;27.08;100747.97;4938762;29;20031;-44
2022/04/06 05:51:16;;;;;;;1.48;0.30;;;;;;;25.03;27.17;100754.97;4938742;29;20036;-44
2022/04/06 05:53:45;;;;;;;0.90;0.50;;;;;;;25.07;27.11;100754.97;4938448;29;20032;-44
2022/04/06 05:56:13;;;;;;;0.68;0.30;;;;;;;25.10;26.62;100747.13;4938473;29;20466;-46
2022/04/06 05:58:42;;;;;;;1.13;0.25;;;;;;;25.01;26.69;100747.97;4938651;29;20068;-44
2022/04/06 06:01:11;;;;;;;0.40;0.10;;;;;;;25.01;26.71;100742.72;4938680;29;20048;-44
2022/04/06 06:03:40;;;;;;;1.55;0.15;;;;;;;24.94;26.80;100738.28;4938307;29;20470;-47
2022/04/06 06:06:07;;;;;;;1.58;0.38;;;;;;;24.95;27.15;100711.19;4938220;29;20039;-45
2022/04/06 06:08:36;;;;;;;0.70;0.30;;;;;;;24.95;26.79;100719.06;4938878;29;20039;-50
2022/04/06 06:11:05;;;;;;;0.98;0.32;;;;;;;24.98;26.68;100714.72;4938283;29;20039;-45
2022/04/06 06:13:33;;;;;;;1.02;0.30;;;;;;;24.86;27.07;100715.53;4938482;29;20028;-44
2022/04/06 06:16:02;;;;;;;0.70;0.20;;;;;;;24.88;27.07;100713.78;4938267;29;20023;-45
2022/04/06 06:18:30;;;;;;;1.20;0.22;;;;;;;24.93;27.17;100721.69;4938076;29;20102;-44
2022/04/06 06:21:01;;;;;;;0.80;0.20;;;;;;;24.95;26.89;100700.69;4938058;29;20035;-48
2022/04/06 06:23:30;;;;;;;0.75;0.28;;;;;;;24.75;26.99;100674.34;4937908;29;20024;-45
2022/04/06 06:25:59;;;;;;;0.40;0.20;;;;;;;24.87;26.91;100700.66;4920013;29;20430;-47
2022/04/06 06:28:27;;;;;;;0.68;0.10;;;;;;;24.88;26.91;100691.91;4937968;29;20027;-44
2022/04/06 06:30:56;;;;;;;1.38;0.40;;;;;;;24.94;26.99;100706.81;4920737;29;20051;-43
2022/04/06 06:33:24;;;;;;;1.80;0.30;;;;;;;24.87;27.18;100706.78;4937943;29;20031;-49
2022/04/06 06:35:53;;;;;;;0.85;0.20;;;;;;;24.93;27.06;100698.06;4937811;29;20389;-44
2022/04/06 06:38:21;;;;;;;0.22;0.10;;;;;;;24.97;27.04;100699.84;4937580;29;20059;-44
2022/04/06 06:40:50;;;;;;;0.50;0.20;;;;;;;24.94;26.89;100706.81;4937572;29;20398;-44
2022/04/06 06:43:19;;;;;;;0.63;0.22;;;;;;;24.96;27.27;100705.97;4938001;29;20438;-45
2022/04/06 06:45:48;;;;;;;0.93;0.52;;;;;;;24.94;27.31;100701.56;4937639;29;20028;-45
2022/04/06 06:48:16;;;;;;;1.17;0.40;;;;;;;24.86;27.43;100697.16;4937222;29;20572;-44
2022/04/06 06:50:45;;;;;;;1.00;0.20;;;;;;;24.86;27.58;100699.78;4937664;29;20039;-48
2022/04/06 06:53:13;;;;;;;0.40;0.22;;;;;;;24.80;27.24;100704.13;4937821;29;20032;-44
2022/04/06 06:55:42;;;;;;;1.05;0.30;;;;;;;24.72;27.41;100694.47;4937206;29;20051;-43
2022/04/06 06:58:10;;;;;;;2.08;0.32;;;;;;;24.65;27.39;100697.00;4937375;29;20441;-44
2022/04/06 07:00:39;;;;;;;0.47;0.30;;;;;;;24.62;27.42;100697.88;4937154;29;20034;-45
2022/04/06 07:03:08;;;;;;;0.70;0.22;;;;;;;24.63;27.67;100697.00;4937321;29;20091;-44
2022/04/06 07:05:36;;;;;;;1.05;0.30;;;;;;;24.64;27.40;100695.25;4920322;29;20028;-44
2022/04/06 07:08:05;;;;;;;1.10;0.30;;;;;;;24.62;27.70;100682.13;4920591;29;20104;-44
2022/04/06 07:10:34;;;;;;;1.33;0.50;;;;;;;24.60;27.65;100683.88;4937183;29;20035;-44
2022/04/06 07:13:02;;;;;;;0.68;0.20;;;;;;;24.66;27.61;100683.03;4937546;29;20039;-46
2022/04/06 07:15:31;;;;;;;0.70;0.20;;;;;;;24.64;27.95;100683.03;4937096;29;20031;-47
2022/04/06 07:18:02;;;;;;;1.25;0.40;;;;;;;24.62;27.46;100683.88;4937281;29;20201;-44
2022/04/06 07:20:30;;;;;;;0.57;0.20;;;;;;;24.58;27.76;100681.22;4937529;29;20132;-44
2022/04/06 07:22:59;;;;;;;1.08;0.30;;;;;;;24.61;27.80;100685.63;4936990;29;20098;-44
2022/04/06 07:25:28;;;;;;;0.35;0.20;;;;;;;24.55;27.79;100678.59;4936886;29;20382;-44
2022/04/06 07:27:56;;;;;;;0.50;0.30;;;;;;;24.53;27.70;100672.47;4936551;29;20032;-46
2022/04/06 07:30:25;;;;;;;1.02;0.35;;;;;;;24.48;28.04;100663.69;4936496;29;20138;-46
2022/04/06 07:32:54;;;;;;;3.60;0.50;;;;;;;24.63;27.95;100668.16;4937079;29;20034;-45
2022/04/06 07:35:23;;;;;;;1.00;0.38;;;;;;;24.65;27.82;100673.41;4936713;29;20466;-44
2022/04/06 07:37:53;;;;;;;0.98;0.32;;;;;;;24.80;27.61;100667.41;4935746;29;20450;-49
2022/04/06 07:40:22;;;;;;;0.40;0.20;;;;;;;24.77;27.72;100663.00;4919625;29;20028;-47
2022/04/06 07:42:52;;;;;;;1.75;0.50;;;;;;;24.77;27.86;100665.63;4937161;29;20034;-45
2022/04/06 07:45:22;;;;;;;0.80;0.40;;;;;;;24.75;27.79;100671.72;4936446;29;20031;-48
2022/04/06 07:47:53;;;;;;;1.60;0.28;;;;;;;24.80;27.67;100656.91;4936766;29;20031;-44
2022/04/06 07:50:22;;;;;;;1.27;0.50;;;;;;;24.83;27.64;100655.16;4936504;29;20047;-46
2022/04/06 07:52:51;;;;;;;1.50;0.50;;;;;;;24.85;27.56;100663.03;4936588;29;20102;-46
2022/04/06 07:55:19;;;;;;;1.05;0.40;;;;;;;24.81;27.71;100653.41;4936648;29;20023;-46
2022/04/06 07:57:48;;;;;;;0.85;0.30;;;;;;;24.77;27.93;100655.13;4936402;29;20027;-49
2022/04/06 08:00:17;;;;;;;1.13;0.40;;;;;;;24.80;27.46;100656.91;4936735;29;20087;-46
2022/04/06 08:02:47;;;;;;;0.70;0.30;;;;;;;24.79;27.71;100657.78;4936693;29;20082;-47
2022/04/06 08:05:16;;;;;;;1.02;0.30;;;;;;;24.84;27.50;100649.06;4936433;29;20497;-45
2022/04/06 08:07:45;;;;;;;1.42;0.40;;;;;;;24.74;27.44;100628.88;4919719;29;20075;-45
2022/04/06 08:10:16;;;;;;;1.50;0.50;;;;;;;24.73;28.03;100648.13;4935820;29;20028;-45
2022/04/06 08:12:45;;;;;;;1.00;0.37;;;;;;;24.77;27.95;100638.53;4936229;29;20082;-45
2022/04/06 08:15:14;;;;;;;0.55;0.43;;;;;;;24.83;27.95;100647.28;4936320;29;20032;-48
2022/04/06 08:17:45;;;;;;;1.33;0.30;;;;;;;24.85;28.16;100652.53;4936171;29;20062;-46
2022/04/06 08:20:15;;;;;;;2.10;0.38;;;;;;;24.92;27.65;100650.81;4919301;29;20031;-46
2022/04/06 08:22:45;;;;;;;3.55;0.60;;;;;;;24.88;27.80;100647.31;4936238;29;20039;-47
2022/04/06 08:25:15;;;;;;;1.30;0.38;;;;;;;24.95;27.95;100643.84;4935805;29;20481;-45
2022/04/06 08:27:44;;;;;;;1.15;0.40;;;;;;;24.88;27.73;100645.56;4918772;29;20047;-46
2022/04/06 08:30:13;;;;;;;1.02;0.50;;;;;;;24.95;27.53;100638.59;4935895;29;20059;-48
2022/04/06 08:32:41;;;;;;;1.02;0.22;;;;;;;24.96;27.80;100629.84;4935822;29;20031;-45
2022/04/06 08:35:09;;;;;;;1.75;0.70;;;;;;;24.95;27.93;100635.97;4936090;29;20035;-45
2022/04/06 08:37:39;;;;;;;3.63;0.70;;;;;;;24.92;27.69;100637.69;4935643;29;20032;-48
2022/04/06 08:40:10;;;;;;;0.73;0.45;;;;;;;24.88;27.73;100637.69;4936133;29;20035;-45
2022/04/06 08:42:39;;;;;;;1.00;0.60;;;;;;;24.88;27.96;100635.09;4935909;29;20496;-45
2022/04/06 08:45:08;;;;;;;1.70;0.50;;;;;;;24.88;27.99;100637.69;4935829;29;20163;-45
2022/04/06 08:47:37;;;;;;;1.45;0.43;;;;;;;24.91;27.90;100631.59;4935829;29;20036;-45
2022/04/06 08:50:07;;;;;;;2.78;0.63;;;;;;;24.89;27.97;100628.06;4939940;29;20024;-46
2022/04/06 08:52:36;;;;;;;3.67;0.60;;;;;;;24.84;28.11;100640.28;4939627;29;20590;-45
2022/04/06 08:55:05;;;;;;;1.25;0.40;;;;;;;24.91;27.80;100638.56;4939376;29;20091;-48
2022/04/06 08:57:34;;;;;;;1.50;0.47;;;;;;;24.89;27.62;100643.81;4923129;29;20125;-46
2022/04/06 09:00:02;;;;;;;1.85;0.40;;;;;;;24.93;28.03;100645.59;4922803;29;20382;-48
2022/04/06 09:02:31;;;;;;;2.08;0.50;;;;;;;24.87;27.79;100646.44;4939243;29;20034;-44
2022/04/06 09:05:02;;;;;;;4.13;0.60;;;;;;;24.96;28.10;100644.72;4939261;29;20500;-44
2022/04/06 09:07:31;;;;;;;4.13;0.50;;;;;;;24.85;27.95;100642.94;4939220;29;20067;-44
2022/04/06 09:10:00;;;;;;;1.15;0.50;;;;;;;24.84;28.16;100650.78;4922692;29;20106;-48
2022/04/06 09:12:29;;;;;;;2.60;0.70;;;;;;;24.84;27.71;100651.66;4939188;29;20103;-44
2022/04/06 09:15:08;;;;;;;1.13;0.68;;;;;;;24.82;28.19;100649.94;4922173;29;20046;-47
2022/04/06 09:17:54;;;;;;;2.40;0.73;;;;;;;24.87;28.06;100646.44;4922211;29;20367;-48
2022/04/06 09:20:25;;;;;;;3.00;0.90;;;;;;;24.78;28.17;100632.41;4922438;29;20102;-47
2022/04/06 09:22:54;;;;;;;2.13;0.77;;;;;;;24.81;27.86;100646.41;4939058;29;20032;-47
2022/04/06 09:25:23;;;;;;;1.98;0.50;;;;;;;24.81;28.25;100645.53;4938857;29;20032;-46
2022/04/06 09:27:51;;;;;;;2.10;0.43;;;;;;;24.84;27.90;100650.78;4938936;29;20043;-46
2022/04/06 09:30:20;;;;;;;1.58;0.60;;;;;;;24.79;27.96;100644.66;4938961;29;20478;-45
2022/04/06 09:32:48;;;;;;;2.03;0.55;;;;;;;24.79;28.04;100631.53;4921555;29;20088;-44
2022/04/06 09:35:28;;;;;;;3.65;0.70;;;;;;;24.79;28.28;100626.28;4939012;29;20027;-45
2022/04/06 09:38:22;;;;;;;3.35;0.68;;;;;;;24.87;28.10;100642.94;4938918;29;20038;-44
2022/04/06 09:40:52;;;;;;;2.05;0.65;;;;;;;24.85;28.11;100637.69;4936420;29;20127;-46
2022/04/06 09:43:30;;;;;;;1.95;0.63;;;;;;;24.85;27.77;100636.78;4922137;29;20547;-44
2022/04/06 09:49:05;;;;;;;;;;;;;;;25.02;27.76;100637.72;4932226;29;20036;-44
2022/04/06 09:51:34;;;;;;;1.65;0.50;;;;;;;24.91;28.17;100639.44;4921996;29;19914;-44
2022/04/06 09:54:05;;;;;;;5.97;0.75;;;;;;;24.87;27.68;100643.81;4921561;29;20388;-46
2022/04/06 09:56:34;;;;;;;4.35;0.82;;;;;;;24.81;27.83;100638.53;4938881;29;20393;-44
2022/04/06 09:59:04;;;;;;;2.85;0.82;;;;;;;24.86;27.79;100626.31;4938137;29;20050;-47
2022/04/06 10:01:34;;;;;;;4.93;0.60;;;;;;;24.86;28.31;100635.91;4920755;29;20043;-49
2022/04/06 10:04:08;;;;;;;3.50;0.80;;;;;;;24.81;27.88;100620.16;4938549;29;20051;-51
2022/04/06 10:06:38;;;;;;;4.22;0.90;;;;;;;24.78;28.18;100632.41;4938235;29;20028;-44
2022/04/06 10:09:09;;;;;;;4.47;0.93;;;;;;;24.72;28.04;100628.88;4938259;29;20114;-44
2022/04/06 10:11:38;;;;;;;2.53;0.77;;;;;;;24.75;28.24;100630.63;4938023;29;20362;-44
2022/04/06 10:14:09;;;;;;;4.15;1.17;;;;;;;24.75;28.10;100625.38;4938007;29;20548;-45
2022/04/06 10:16:38;;;;;;;3.15;0.70;;;;;;;24.76;28.29;100621.88;4938238;29;20118;-43
2022/04/06 10:19:08;;;;;;;1.85;0.68;;;;;;;24.77;28.08;100617.53;4938281;29;20083;-45
2022/04/06 10:21:58;;;;;;;2.80;0.88;;;;;;;24.81;28.30;100619.31;4938286;29;20449;-44
2022/04/06 10:24:36;;;;;;;1.92;0.70;;;;;;;24.74;28.11;100613.13;4918099;29;20039;-44
2022/04/06 10:27:25;;;;;;;2.78;0.88;;;;;;;24.80;27.97;100617.56;4921158;29;20039;-44
2022/04/06 10:30:17;;;;;;;4.03;0.80;;;;;;;24.80;28.15;100617.56;4937636;29;20138;-44
2022/04/06 10:32:48;;;;;;;4.32;1.20;;;;;;;24.71;27.98;100610.53;4935371;29;20141;-47
2022/04/06 10:35:19;;;;;;;2.83;0.88;;;;;;;24.66;28.38;100599.94;4937730;29;20031;-49
2022/04/06 10:38:07;;;;;;;3.30;1.17;;;;;;;24.74;28.47;100602.63;4937831;29;20019;-45
2022/04/06 10:40:48;;;;;;;3.08;0.90;;;;;;;24.76;28.47;100605.28;4937716;29;20038;-46
2022/04/06 10:43:40;;;;;;;3.80;1.05;;;;;;;24.73;28.32;100601.78;4937620;29;20042;-44
2022/04/06 10:46:10;;;;;;;3.78;0.98;;;;;;;24.70;28.45;100591.25;4937951;29;20028;-44
2022/04/06 10:48:58;;;;;;;3.22;0.80;;;;;;;24.73;28.30;100578.16;4937986;29;20094;-45
2022/04/06 10:51:29;;;;;;;4.03;1.00;;;;;;;24.65;28.45;100587.75;4920217;29;20039;-44
2022/04/06 10:53:58;;;;;;;3.83;0.80;;;;;;;24.63;28.42;100588.59;4937484;29;20096;-45
2022/04/06 10:56:26;;;;;;;3.33;0.98;;;;;;;24.55;29.02;100573.72;4921063;29;20028;-48
2022/04/06 10:58:58;;;;;;;4.07;1.02;;;;;;;24.59;28.55;100582.47;4920640;29;20439;-47
2022/04/06 11:01:31;;;;;;;3.72;0.90;;;;;;;24.63;28.51;100581.59;4937465;29;20055;-44
2022/04/06 11:04:19;;;;;;;5.28;1.00;;;;;;;24.62;28.34;100565.84;4937086;29;20032;-46
2022/04/06 11:06:49;;;;;;;2.95;0.88;;;;;;;24.63;28.68;100578.97;4937312;29;20035;-43
2022/04/06 11:10:22;;;;;;;3.22;0.98;;;;;;;24.66;28.57;100572.88;4937521;29;20032;-49
2022/04/06 11:12:26;;;;;;;2.88;0.80;;;;;;;24.64;28.63;100575.50;4930910;29;20122;-44
2022/04/06 11:14:55;;;;;;;3.45;0.98;;;;;;;24.64;28.64;100570.25;4937684;29;20032;-44
2022/04/06 11:17:34;;;;;;;3.13;0.85;;;;;;;24.60;28.59;100559.72;4937130;29;20040;-44
2022/04/06 11:20:06;;;;;;;2.45;0.88;;;;;;;24.55;28.77;100557.06;4937316;29;20522;-44
2022/04/06 11:22:35;;;;;;;3.00;1.00;;;;;;;24.52;28.99;100559.69;4936803;29;20051;-45
2022/04/06 11:25:03;;;;;;;3.97;1.50;;;;;;;24.49;28.80;100534.34;4937311;29;20123;-45
2022/04/06 11:27:33;;;;;;;2.08;0.80;;;;;;;24.52;28.73;100536.97;4919632;29;20035;-46
2022/04/06 11:30:02;;;;;;;4.03;1.50;;;;;;;24.47;29.05;100535.22;4936969;29;20508;-44
2022/04/06 11:32:30;;;;;;;2.83;0.85;;;;;;;24.49;29.05;100525.59;4936605;29;20047;-47
2022/04/06 11:35:01;;;;;;;3.33;1.10;;;;;;;24.48;28.73;100529.09;4936316;29;20035;-43
2022/04/06 11:37:30;;;;;;;5.18;1.33;;;;;;;24.45;29.07;100523.84;4936088;29;20035;-46
2022/04/06 11:40:04;;;;;;;3.70;1.00;;;;;;;24.46;29.11;100518.59;4936259;29;20090;-46
2022/04/06 11:42:33;;;;;;;3.93;1.10;;;;;;;24.48;29.19;100511.59;4936844;29;20477;-45